Ashburn, VA

01:22 AM EDT am 28. Juni 2017 (GMT -0400)
Ashburn Village 1 | | Change Station

Höhe 279 ft 39.05 °N, 77.48 °W | Updated 2 seconds ago

Heiter
Heiter
58.9 °F
gefühlte 58.9 °F
N
0.0
Wind Wechselnd Wind aus Nord
Gusts 2.0 mph

Heute
Max. -- | schwach -- °F
--% Regenrisiko
Gestern
Max. -- | schwach -- °F
Precip. -- inch
Druck 30.12 inch
Sichtweite 10.0 Meilen
Wolken Heiter
Taupunkt 50 °F
Feuchtigkeit 71%
Regen 0.00 inch
Schneehöhe Nicht verfügbar..
5:46 AM 8:39 PM
Erstes Viertel, 22% visible
METAR KJYO 280455Z AUTO 33005KT 10SM CLR 17/10 A3012 RMK AO2
Druck 30.12 inch
Sichtweite 10.0 Meilen
Wolken Heiter
Taupunkt 50 °F
Feuchtigkeit 71%
Regen 0.00 inch
Schneehöhe Nicht verfügbar..
5:46 AM 8:39 PM
Erstes Viertel, 22% visible
METAR KJYO 280455Z AUTO 33005KT 10SM CLR 17/10 A3012 RMK AO2

Get Severe Weather Alerts

Thanks for signing up!

Be on the lookout for a verification email in your inbox.

You'll start receiving the daily forecast at 6 AM.

×

10-Day Weather Forecast

Almanac

Astronomie

Jun. 28, 2017 Aufgang Untergang
Genaue Zeit
Bürgerliche Dämmerung
Nautische Dämmerung
Astronomische Dämmerung
Mond
Länge des sichtbaren Lichts
Tageslänge
Tomorrow will be .
, % of the Moon is Illuminated

Heutige Rekorde

State Highs State Lows

Community

WunderPhotos

Category 6

Welcome to Category 6. This is the collective home for Weather Underground's featured writeups by Dr. Jeff Masters (right), Bob Henson (left), Chris Burt, and other regular contributors.

Nearby

Luftqualität

  Luftqualität LQ Index Schadstoff
Not available.

Schneehöhe

Station Depth Höhe

Erdbebenaktivität

Stadt Distance Mag. Time & Date
Minimum magnitude displayed is 2.5.

küstennahe Wassertemperaturen

Ort Temperatur

Stations

Wetterstationen in der Umgebung

Stationsstandort Temp. Windchill Taupunkt Feuchtigkeit Wind Precip. Höhe Aktualisiert Art
                   

Watches & Warnings

There are currently no watches in effect.